sensor_id;sensor_type;location;lat;lon;timestamp;temperature;humidity
41116;DHT22;26861;51.824;4.682;2023-02-28T00:00:24;15.20;51.20
41116;DHT22;26861;51.824;4.682;2023-02-28T00:02:50;15.20;51.30
41116;DHT22;26861;51.824;4.682;2023-02-28T00:05:20;15.20;51.20
41116;DHT22;26861;51.824;4.682;2023-02-28T00:07:46;15.20;51.50
41116;DHT22;26861;51.824;4.682;2023-02-28T00:10:16;15.20;51.40
41116;DHT22;26861;51.824;4.682;2023-02-28T00:12:46;15.20;51.50
41116;DHT22;26861;51.824;4.682;2023-02-28T00:15:12;15.20;51.50
41116;DHT22;26861;51.824;4.682;2023-02-28T00:17:38;15.20;51.40
41116;DHT22;26861;51.824;4.682;2023-02-28T00:20:05;15.20;51.60
41116;DHT22;26861;51.824;4.682;2023-02-28T00:22:35;15.20;51.50
41116;DHT22;26861;51.824;4.682;2023-02-28T00:25:01;15.20;51.50
41116;DHT22;26861;51.824;4.682;2023-02-28T00:27:27;15.20;51.70
41116;DHT22;26861;51.824;4.682;2023-02-28T00:29:52;15.20;52.20
41116;DHT22;26861;51.824;4.682;2023-02-28T00:32:19;15.20;51.70
41116;DHT22;26861;51.824;4.682;2023-02-28T00:34:45;15.20;51.80
41116;DHT22;26861;51.824;4.682;2023-02-28T00:37:11;15.20;51.80
41116;DHT22;26861;51.824;4.682;2023-02-28T00:39:40;15.10;51.60
41116;DHT22;26861;51.824;4.682;2023-02-28T00:42:07;15.20;51.60
41116;DHT22;26861;51.824;4.682;2023-02-28T00:44:33;15.20;51.80
41116;DHT22;26861;51.824;4.682;2023-02-28T00:46:59;15.20;51.80
41116;DHT22;26861;51.824;4.682;2023-02-28T00:49:26;15.20;51.80
41116;DHT22;26861;51.824;4.682;2023-02-28T00:51:52;15.10;51.70
41116;DHT22;26861;51.824;4.682;2023-02-28T00:54:18;15.10;51.70
41116;DHT22;26861;51.824;4.682;2023-02-28T00:56:44;15.20;59.90
41116;DHT22;26861;51.824;4.682;2023-02-28T00:59:11;15.10;51.70
41116;DHT22;26861;51.824;4.682;2023-02-28T01:01:37;15.10;52.40
41116;DHT22;26861;51.824;4.682;2023-02-28T01:04:03;15.10;51.70
41116;DHT22;26861;51.824;4.682;2023-02-28T01:06:28;15.10;51.80
41116;DHT22;26861;51.824;4.682;2023-02-28T01:08:54;15.10;51.80
41116;DHT22;26861;51.824;4.682;2023-02-28T01:11:20;15.10;52.40
41116;DHT22;26861;51.824;4.682;2023-02-28T01:13:46;15.10;52.40
41116;DHT22;26861;51.824;4.682;2023-02-28T01:16:13;15.10;51.70
41116;DHT22;26861;51.824;4.682;2023-02-28T01:18:39;15.10;51.70
41116;DHT22;26861;51.824;4.682;2023-02-28T01:21:06;15.10;51.80
41116;DHT22;26861;51.824;4.682;2023-02-28T01:23:33;15.10;52.50
41116;DHT22;26861;51.824;4.682;2023-02-28T01:26:05;15.10;52.40
41116;DHT22;26861;51.824;4.682;2023-02-28T01:28:31;15.10;52.40
41116;DHT22;26861;51.824;4.682;2023-02-28T01:30:57;15.10;51.70
41116;DHT22;26861;51.824;4.682;2023-02-28T01:33:22;15.10;51.80
41116;DHT22;26861;51.824;4.682;2023-02-28T01:35:48;15.00;52.40
41116;DHT22;26861;51.824;4.682;2023-02-28T01:38:13;15.00;51.80
41116;DHT22;26861;51.824;4.682;2023-02-28T01:40:39;15.00;51.80
41116;DHT22;26861;51.824;4.682;2023-02-28T01:43:24;15.10;51.80
41116;DHT22;26861;51.824;4.682;2023-02-28T01:45:51;15.00;51.80
41116;DHT22;26861;51.824;4.682;2023-02-28T01:48:17;15.10;52.40
41116;DHT22;26861;51.824;4.682;2023-02-28T01:50:45;15.10;51.80
41116;DHT22;26861;51.824;4.682;2023-02-28T01:53:16;15.10;51.80
41116;DHT22;26861;51.824;4.682;2023-02-28T01:55:47;15.00;51.80
41116;DHT22;26861;51.824;4.682;2023-02-28T01:58:14;15.00;51.80
41116;DHT22;26861;51.824;4.682;2023-02-28T02:00:40;15.00;51.80
41116;DHT22;26861;51.824;4.682;2023-02-28T02:03:14;15.00;51.80
41116;DHT22;26861;51.824;4.682;2023-02-28T02:05:44;15.00;51.90
41116;DHT22;26861;51.824;4.682;2023-02-28T02:08:16;15.00;51.90
41116;DHT22;26861;51.824;4.682;2023-02-28T02:10:49;15.00;51.90
41116;DHT22;26861;51.824;4.682;2023-02-28T02:18:56;15.00;51.90
41116;DHT22;26861;51.824;4.682;2023-02-28T02:24:38;15.00;52.00
41116;DHT22;26861;51.824;4.682;2023-02-28T02:30:39;15.00;52.70
41116;DHT22;26861;51.824;4.682;2023-02-28T02:43:40;14.90;52.00
41116;DHT22;26861;51.824;4.682;2023-02-28T02:46:27;14.90;52.10
41116;DHT22;26861;51.824;4.682;2023-02-28T02:48:55;14.90;52.10
41116;DHT22;26861;51.824;4.682;2023-02-28T02:51:23;14.90;52.00
41116;DHT22;26861;51.824;4.682;2023-02-28T02:54:03;14.90;52.10
41116;DHT22;26861;51.824;4.682;2023-02-28T02:56:33;14.90;52.10
41116;DHT22;26861;51.824;4.682;2023-02-28T02:59:03;14.90;52.10
41116;DHT22;26861;51.824;4.682;2023-02-28T03:01:31;14.90;52.10
41116;DHT22;26861;51.824;4.682;2023-02-28T03:04:10;14.90;52.10
41116;DHT22;26861;51.824;4.682;2023-02-28T03:06:36;14.90;52.10
41116;DHT22;26861;51.824;4.682;2023-02-28T03:09:02;14.90;52.10
41116;DHT22;26861;51.824;4.682;2023-02-28T03:11:27;14.90;52.20
41116;DHT22;26861;51.824;4.682;2023-02-28T03:22:00;14.90;52.20
41116;DHT22;26861;51.824;4.682;2023-02-28T03:27:12;14.80;52.30
41116;DHT22;26861;51.824;4.682;2023-02-28T03:29:43;14.80;52.30
41116;DHT22;26861;51.824;4.682;2023-02-28T03:32:25;14.90;52.30
41116;DHT22;26861;51.824;4.682;2023-02-28T03:35:12;14.90;52.30
41116;DHT22;26861;51.824;4.682;2023-02-28T03:37:42;14.80;52.30
41116;DHT22;26861;51.824;4.682;2023-02-28T03:40:13;14.80;52.40
41116;DHT22;26861;51.824;4.682;2023-02-28T03:42:42;14.80;52.30
41116;DHT22;26861;51.824;4.682;2023-02-28T03:45:25;14.90;52.40
41116;DHT22;26861;51.824;4.682;2023-02-28T03:47:58;14.80;52.40
41116;DHT22;26861;51.824;4.682;2023-02-28T03:50:41;14.80;52.40
41116;DHT22;26861;51.824;4.682;2023-02-28T03:53:27;14.80;52.30
41116;DHT22;26861;51.824;4.682;2023-02-28T03:56:19;14.80;52.30
41116;DHT22;26861;51.824;4.682;2023-02-28T04:01:35;14.80;52.40
41116;DHT22;26861;51.824;4.682;2023-02-28T04:04:03;14.80;52.40
41116;DHT22;26861;51.824;4.682;2023-02-28T04:06:31;14.80;52.40
41116;DHT22;26861;51.824;4.682;2023-02-28T04:08:57;14.80;52.40
41116;DHT22;26861;51.824;4.682;2023-02-28T04:11:44;14.80;52.50
41116;DHT22;26861;51.824;4.682;2023-02-28T04:14:11;14.80;52.50
41116;DHT22;26861;51.824;4.682;2023-02-28T04:16:39;14.80;52.40
41116;DHT22;26861;51.824;4.682;2023-02-28T04:19:06;14.80;52.40
41116;DHT22;26861;51.824;4.682;2023-02-28T04:21:35;14.80;52.50
41116;DHT22;26861;51.824;4.682;2023-02-28T04:24:01;14.80;52.40
41116;DHT22;26861;51.824;4.682;2023-02-28T04:26:35;14.80;52.50
41116;DHT22;26861;51.824;4.682;2023-02-28T04:29:02;14.80;52.50
41116;DHT22;26861;51.824;4.682;2023-02-28T04:31:28;14.80;52.50
41116;DHT22;26861;51.824;4.682;2023-02-28T04:33:54;14.70;52.50
41116;DHT22;26861;51.824;4.682;2023-02-28T04:36:19;14.70;52.50
41116;DHT22;26861;51.824;4.682;2023-02-28T04:38:46;14.80;52.60
41116;DHT22;26861;51.824;4.682;2023-02-28T04:41:13;14.70;52.50
41116;DHT22;26861;51.824;4.682;2023-02-28T04:43:39;14.70;52.50
41116;DHT22;26861;51.824;4.682;2023-02-28T04:46:05;14.70;52.50
41116;DHT22;26861;51.824;4.682;2023-02-28T04:48:33;14.70;52.70
41116;DHT22;26861;51.824;4.682;2023-02-28T04:51:03;14.70;52.80
41116;DHT22;26861;51.824;4.682;2023-02-28T04:53:29;14.70;52.80
41116;DHT22;26861;51.824;4.682;2023-02-28T04:55:58;14.70;52.80
41116;DHT22;26861;51.824;4.682;2023-02-28T04:58:24;14.70;52.80
41116;DHT22;26861;51.824;4.682;2023-02-28T05:00:51;14.70;52.80
41116;DHT22;26861;51.824;4.682;2023-02-28T05:03:17;14.70;52.80
41116;DHT22;26861;51.824;4.682;2023-02-28T05:05:43;14.70;52.90
41116;DHT22;26861;51.824;4.682;2023-02-28T05:08:08;14.70;52.80
41116;DHT22;26861;51.824;4.682;2023-02-28T05:10:35;14.70;53.50
41116;DHT22;26861;51.824;4.682;2023-02-28T05:13:01;14.70;52.90
41116;DHT22;26861;51.824;4.682;2023-02-28T05:15:27;14.70;52.90
41116;DHT22;26861;51.824;4.682;2023-02-28T05:17:53;14.70;52.90
41116;DHT22;26861;51.824;4.682;2023-02-28T05:20:19;14.70;52.90
41116;DHT22;26861;51.824;4.682;2023-02-28T05:22:46;14.70;52.90
41116;DHT22;26861;51.824;4.682;2023-02-28T05:25:16;14.80;53.00
41116;DHT22;26861;51.824;4.682;2023-02-28T05:27:43;14.70;52.90
41116;DHT22;26861;51.824;4.682;2023-02-28T05:30:10;14.70;52.90
41116;DHT22;26861;51.824;4.682;2023-02-28T05:32:39;14.70;52.90
41116;DHT22;26861;51.824;4.682;2023-02-28T05:35:09;14.70;52.90
41116;DHT22;26861;51.824;4.682;2023-02-28T05:37:37;14.70;52.90
41116;DHT22;26861;51.824;4.682;2023-02-28T05:40:04;14.70;52.90
41116;DHT22;26861;51.824;4.682;2023-02-28T05:42:36;14.70;52.90
41116;DHT22;26861;51.824;4.682;2023-02-28T05:45:01;14.70;52.90
41116;DHT22;26861;51.824;4.682;2023-02-28T05:47:27;14.70;52.90
41116;DHT22;26861;51.824;4.682;2023-02-28T05:49:52;14.70;53.50
41116;DHT22;26861;51.824;4.682;2023-02-28T05:52:18;14.70;52.90
41116;DHT22;26861;51.824;4.682;2023-02-28T05:54:44;14.70;52.90
41116;DHT22;26861;51.824;4.682;2023-02-28T05:57:11;14.70;52.90
41116;DHT22;26861;51.824;4.682;2023-02-28T05:59:36;14.70;53.00
41116;DHT22;26861;51.824;4.682;2023-02-28T06:02:10;14.70;53.00
41116;DHT22;26861;51.824;4.682;2023-02-28T06:04:37;14.70;53.10
41116;DHT22;26861;51.824;4.682;2023-02-28T06:07:03;14.70;53.20
41116;DHT22;26861;51.824;4.682;2023-02-28T06:09:29;14.70;53.10
41116;DHT22;26861;51.824;4.682;2023-02-28T06:12:01;14.70;53.20
41116;DHT22;26861;51.824;4.682;2023-02-28T06:14:32;14.70;53.20
41116;DHT22;26861;51.824;4.682;2023-02-28T06:17:00;14.70;53.30
41116;DHT22;26861;51.824;4.682;2023-02-28T06:19:26;14.70;53.30
41116;DHT22;26861;51.824;4.682;2023-02-28T06:21:53;14.70;53.40
41116;DHT22;26861;51.824;4.682;2023-02-28T06:24:20;14.70;53.40
41116;DHT22;26861;51.824;4.682;2023-02-28T06:26:46;14.70;53.40
41116;DHT22;26861;51.824;4.682;2023-02-28T06:29:11;14.70;53.50
41116;DHT22;26861;51.824;4.682;2023-02-28T06:31:37;14.70;53.50
41116;DHT22;26861;51.824;4.682;2023-02-28T06:34:04;14.70;53.60
41116;DHT22;26861;51.824;4.682;2023-02-28T06:36:30;14.70;54.20
41116;DHT22;26861;51.824;4.682;2023-02-28T06:38:56;14.70;53.60
41116;DHT22;26861;51.824;4.682;2023-02-28T06:41:26;14.70;53.70
41116;DHT22;26861;51.824;4.682;2023-02-28T06:43:52;14.70;53.80
41116;DHT22;26861;51.824;4.682;2023-02-28T06:46:18;14.70;53.80
41116;DHT22;26861;51.824;4.682;2023-02-28T06:48:45;14.70;53.80
41116;DHT22;26861;51.824;4.682;2023-02-28T06:51:16;14.70;53.80
41116;DHT22;26861;51.824;4.682;2023-02-28T06:53:42;14.70;53.90
41116;DHT22;26861;51.824;4.682;2023-02-28T06:56:11;14.70;53.80
41116;DHT22;26861;51.824;4.682;2023-02-28T06:58:38;14.70;53.90
41116;DHT22;26861;51.824;4.682;2023-02-28T07:01:05;14.70;53.90
41116;DHT22;26861;51.824;4.682;2023-02-28T07:03:31;14.70;54.00
41116;DHT22;26861;51.824;4.682;2023-02-28T07:05:57;14.70;53.90
41116;DHT22;26861;51.824;4.682;2023-02-28T07:08:24;14.70;53.90
41116;DHT22;26861;51.824;4.682;2023-02-28T07:10:55;14.70;53.90
41116;DHT22;26861;51.824;4.682;2023-02-28T07:13:22;14.70;53.90
41116;DHT22;26861;51.824;4.682;2023-02-28T07:15:55;14.70;53.90
41116;DHT22;26861;51.824;4.682;2023-02-28T07:18:20;14.70;53.90
41116;DHT22;26861;51.824;4.682;2023-02-28T07:20:46;14.70;53.90
41116;DHT22;26861;51.824;4.682;2023-02-28T07:23:11;14.70;53.90
41116;DHT22;26861;51.824;4.682;2023-02-28T07:25:37;14.70;53.80
41116;DHT22;26861;51.824;4.682;2023-02-28T07:28:03;14.70;53.80
41116;DHT22;26861;51.824;4.682;2023-02-28T07:30:28;14.70;53.80
41116;DHT22;26861;51.824;4.682;2023-02-28T07:32:54;14.70;54.40
41116;DHT22;26861;51.824;4.682;2023-02-28T07:35:22;14.70;53.80
41116;DHT22;26861;51.824;4.682;2023-02-28T07:37:47;14.70;53.80
41116;DHT22;26861;51.824;4.682;2023-02-28T07:40:13;14.70;53.70
41116;DHT22;26861;51.824;4.682;2023-02-28T07:42:42;14.70;53.70
41116;DHT22;26861;51.824;4.682;2023-02-28T07:45:09;14.70;53.60
41116;DHT22;26861;51.824;4.682;2023-02-28T07:47:37;14.70;53.70
41116;DHT22;26861;51.824;4.682;2023-02-28T07:50:03;14.70;53.50
41116;DHT22;26861;51.824;4.682;2023-02-28T07:52:29;14.70;53.50
41116;DHT22;26861;51.824;4.682;2023-02-28T07:54:54;15.50;53.80
41116;DHT22;26861;51.824;4.682;2023-02-28T07:57:20;14.70;53.30
41116;DHT22;26861;51.824;4.682;2023-02-28T07:59:45;14.70;53.20
41116;DHT22;26861;51.824;4.682;2023-02-28T08:02:16;14.70;53.10
41116;DHT22;26861;51.824;4.682;2023-02-28T08:04:42;14.70;53.20
41116;DHT22;26861;51.824;4.682;2023-02-28T08:07:08;14.70;53.20
41116;DHT22;26861;51.824;4.682;2023-02-28T08:09:34;14.70;53.20
41116;DHT22;26861;51.824;4.682;2023-02-28T08:11:59;14.70;53.30
41116;DHT22;26861;51.824;4.682;2023-02-28T08:14:25;14.70;53.40
41116;DHT22;26861;51.824;4.682;2023-02-28T08:16:51;14.70;53.40
41116;DHT22;26861;51.824;4.682;2023-02-28T08:19:16;14.70;53.40
41116;DHT22;26861;51.824;4.682;2023-02-28T08:21:42;14.70;53.50
41116;DHT22;26861;51.824;4.682;2023-02-28T08:24:07;14.70;53.50
41116;DHT22;26861;51.824;4.682;2023-02-28T08:26:33;14.70;53.50
41116;DHT22;26861;51.824;4.682;2023-02-28T08:28:59;14.70;53.40
41116;DHT22;26861;51.824;4.682;2023-02-28T08:31:24;14.70;53.50
41116;DHT22;26861;51.824;4.682;2023-02-28T08:33:50;14.70;53.70
41116;DHT22;26861;51.824;4.682;2023-02-28T08:36:17;14.70;53.60
41116;DHT22;26861;51.824;4.682;2023-02-28T08:38:43;14.70;54.30
41116;DHT22;26861;51.824;4.682;2023-02-28T08:41:11;14.70;53.80
41116;DHT22;26861;51.824;4.682;2023-02-28T08:43:38;14.70;53.70
41116;DHT22;26861;51.824;4.682;2023-02-28T08:46:05;14.70;53.70
41116;DHT22;26861;51.824;4.682;2023-02-28T08:48:32;14.70;53.60
41116;DHT22;26861;51.824;4.682;2023-02-28T08:51:00;14.70;53.70
41116;DHT22;26861;51.824;4.682;2023-02-28T08:53:27;14.70;53.50
41116;DHT22;26861;51.824;4.682;2023-02-28T08:56:01;14.70;53.50
41116;DHT22;26861;51.824;4.682;2023-02-28T08:58:27;14.70;53.50
41116;DHT22;26861;51.824;4.682;2023-02-28T09:00:53;14.70;53.90
41116;DHT22;26861;51.824;4.682;2023-02-28T09:03:19;14.70;53.50
41116;DHT22;26861;51.824;4.682;2023-02-28T09:05:59;14.70;53.50
41116;DHT22;26861;51.824;4.682;2023-02-28T09:08:27;14.70;53.40
41116;DHT22;26861;51.824;4.682;2023-02-28T09:10:53;14.70;53.40
41116;DHT22;26861;51.824;4.682;2023-02-28T09:13:20;14.70;53.50
41116;DHT22;26861;51.824;4.682;2023-02-28T09:15:46;14.70;53.40
41116;DHT22;26861;51.824;4.682;2023-02-28T09:18:12;14.70;53.50
41116;DHT22;26861;51.824;4.682;2023-02-28T09:20:38;14.70;54.10
41116;DHT22;26861;51.824;4.682;2023-02-28T09:23:06;14.70;53.50
41116;DHT22;26861;51.824;4.682;2023-02-28T09:25:32;14.70;53.50
41116;DHT22;26861;51.824;4.682;2023-02-28T09:27:57;14.70;54.10
41116;DHT22;26861;51.824;4.682;2023-02-28T09:30:23;14.70;54.10
41116;DHT22;26861;51.824;4.682;2023-02-28T09:32:48;14.70;53.50
41116;DHT22;26861;51.824;4.682;2023-02-28T09:35:18;14.70;53.40
41116;DHT22;26861;51.824;4.682;2023-02-28T09:37:44;14.70;53.40
41116;DHT22;26861;51.824;4.682;2023-02-28T09:40:11;14.60;53.40
41116;DHT22;26861;51.824;4.682;2023-02-28T09:42:37;14.60;53.40
41116;DHT22;26861;51.824;4.682;2023-02-28T09:45:37;14.70;53.40
41116;DHT22;26861;51.824;4.682;2023-02-28T09:48:09;14.70;53.40
41116;DHT22;26861;51.824;4.682;2023-02-28T09:50:40;14.60;53.40
41116;DHT22;26861;51.824;4.682;2023-02-28T09:53:21;14.60;53.40
41116;DHT22;26861;51.824;4.682;2023-02-28T09:55:58;14.60;53.40
41116;DHT22;26861;51.824;4.682;2023-02-28T10:07:04;14.60;53.30
41116;DHT22;26861;51.824;4.682;2023-02-28T10:09:32;14.60;53.30
41116;DHT22;26861;51.824;4.682;2023-02-28T10:12:05;14.60;53.20
41116;DHT22;26861;51.824;4.682;2023-02-28T10:14:35;14.70;53.30
41116;DHT22;26861;51.824;4.682;2023-02-28T10:17:10;14.70;53.20
41116;DHT22;26861;51.824;4.682;2023-02-28T10:22:17;14.70;53.10
41116;DHT22;26861;51.824;4.682;2023-02-28T10:24:49;14.70;53.00
41116;DHT22;26861;51.824;4.682;2023-02-28T10:27:22;14.70;52.90
41116;DHT22;26861;51.824;4.682;2023-02-28T10:29:53;14.70;52.80
41116;DHT22;26861;51.824;4.682;2023-02-28T10:32:31;14.80;52.90
41116;DHT22;26861;51.824;4.682;2023-02-28T10:37:28;14.90;52.60
41116;DHT22;26861;51.824;4.682;2023-02-28T10:39:54;14.90;52.50
41116;DHT22;26861;51.824;4.682;2023-02-28T10:42:28;14.90;52.90
41116;DHT22;26861;51.824;4.682;2023-02-28T10:45:15;15.00;52.10
41116;DHT22;26861;51.824;4.682;2023-02-28T10:48:23;15.10;52.00
41116;DHT22;26861;51.824;4.682;2023-02-28T10:50:52;15.20;51.80
41116;DHT22;26861;51.824;4.682;2023-02-28T10:58:27;15.40;51.60
41116;DHT22;26861;51.824;4.682;2023-02-28T11:00:53;15.40;51.70
41116;DHT22;26861;51.824;4.682;2023-02-28T11:03:30;15.40;51.80
41116;DHT22;26861;51.824;4.682;2023-02-28T11:05:57;15.30;52.10
41116;DHT22;26861;51.824;4.682;2023-02-28T11:08:22;15.30;52.30
41116;DHT22;26861;51.824;4.682;2023-02-28T11:11:03;15.30;52.40
41116;DHT22;26861;51.824;4.682;2023-02-28T11:13:33;15.30;52.50
41116;DHT22;26861;51.824;4.682;2023-02-28T11:16:03;15.30;52.70
41116;DHT22;26861;51.824;4.682;2023-02-28T11:18:38;15.30;52.70
41116;DHT22;26861;51.824;4.682;2023-02-28T11:21:06;15.30;52.90
41116;DHT22;26861;51.824;4.682;2023-02-28T11:23:36;15.30;53.60
41116;DHT22;26861;51.824;4.682;2023-02-28T11:26:04;15.30;53.10
41116;DHT22;26861;51.824;4.682;2023-02-28T11:28:42;15.30;53.10
41116;DHT22;26861;51.824;4.682;2023-02-28T11:33:45;15.40;53.10
41116;DHT22;26861;51.824;4.682;2023-02-28T11:36:27;15.50;53.00
41116;DHT22;26861;51.824;4.682;2023-02-28T11:38:59;15.60;52.60
41116;DHT22;26861;51.824;4.682;2023-02-28T11:41:34;15.70;52.50
41116;DHT22;26861;51.824;4.682;2023-02-28T11:46:51;15.90;52.10
41116;DHT22;26861;51.824;4.682;2023-02-28T11:49:47;16.00;51.90
41116;DHT22;26861;51.824;4.682;2023-02-28T11:52:29;16.20;51.70
41116;DHT22;26861;51.824;4.682;2023-02-28T12:08:55;16.60;51.20
41116;DHT22;26861;51.824;4.682;2023-02-28T12:20:28;16.90;50.80
41116;DHT22;26861;51.824;4.682;2023-02-28T12:28:52;17.10;50.50
41116;DHT22;26861;51.824;4.682;2023-02-28T12:31:25;17.20;50.10
41116;DHT22;26861;51.824;4.682;2023-02-28T12:34:06;17.30;50.10
41116;DHT22;26861;51.824;4.682;2023-02-28T12:36:35;17.40;50.30
41116;DHT22;26861;51.824;4.682;2023-02-28T12:41:46;17.50;49.80
41116;DHT22;26861;51.824;4.682;2023-02-28T12:47:05;17.60;49.70
41116;DHT22;26861;51.824;4.682;2023-02-28T12:52:23;17.80;49.10
41116;DHT22;26861;51.824;4.682;2023-02-28T12:55:00;17.90;49.30
41116;DHT22;26861;51.824;4.682;2023-02-28T12:57:43;17.80;49.00
41116;DHT22;26861;51.824;4.682;2023-02-28T13:00:19;17.90;49.10
41116;DHT22;26861;51.824;4.682;2023-02-28T13:06:14;18.00;48.90
41116;DHT22;26861;51.824;4.682;2023-02-28T13:09:02;18.00;48.80
41116;DHT22;26861;51.824;4.682;2023-02-28T13:11:39;18.10;48.80
41116;DHT22;26861;51.824;4.682;2023-02-28T13:14:16;18.20;48.50
41116;DHT22;26861;51.824;4.682;2023-02-28T13:17:10;18.20;48.40
41116;DHT22;26861;51.824;4.682;2023-02-28T13:22:40;18.40;48.40
41116;DHT22;26861;51.824;4.682;2023-02-28T13:27:47;18.50;48.10
41116;DHT22;26861;51.824;4.682;2023-02-28T13:33:34;18.60;48.20
41116;DHT22;26861;51.824;4.682;2023-02-28T13:36:10;18.70;47.70
41116;DHT22;26861;51.824;4.682;2023-02-28T13:38:48;18.80;47.50
41116;DHT22;26861;51.824;4.682;2023-02-28T13:46:32;18.90;47.50
41116;DHT22;26861;51.824;4.682;2023-02-28T13:49:26;18.90;47.30
41116;DHT22;26861;51.824;4.682;2023-02-28T14:05:43;19.00;47.30
41116;DHT22;26861;51.824;4.682;2023-02-28T14:08:13;19.00;47.30
41116;DHT22;26861;51.824;4.682;2023-02-28T14:10:48;19.00;46.90
41116;DHT22;26861;51.824;4.682;2023-02-28T14:16:04;19.00;47.50
41116;DHT22;26861;51.824;4.682;2023-02-28T14:32:58;19.10;47.90
41116;DHT22;26861;51.824;4.682;2023-02-28T14:37:53;19.10;47.20
41116;DHT22;26861;51.824;4.682;2023-02-28T14:40:34;19.10;47.00
41116;DHT22;26861;51.824;4.682;2023-02-28T14:43:05;19.00;47.70
41116;DHT22;26861;51.824;4.682;2023-02-28T14:45:49;19.10;47.60
41116;DHT22;26861;51.824;4.682;2023-02-28T14:48:16;19.00;47.40
41116;DHT22;26861;51.824;4.682;2023-02-28T14:50:51;19.00;47.50
41116;DHT22;26861;51.824;4.682;2023-02-28T14:53:20;19.00;47.30
41116;DHT22;26861;51.824;4.682;2023-02-28T14:55:48;19.00;47.10
41116;DHT22;26861;51.824;4.682;2023-02-28T14:58:30;19.00;47.40
41116;DHT22;26861;51.824;4.682;2023-02-28T15:00:59;19.00;47.60
41116;DHT22;26861;51.824;4.682;2023-02-28T15:03:37;19.00;47.60
41116;DHT22;26861;51.824;4.682;2023-02-28T15:06:14;19.00;47.50
41116;DHT22;26861;51.824;4.682;2023-02-28T15:08:42;19.00;47.30
41116;DHT22;26861;51.824;4.682;2023-02-28T15:11:13;19.00;47.50
41116;DHT22;26861;51.824;4.682;2023-02-28T15:13:44;18.90;47.40
41116;DHT22;26861;51.824;4.682;2023-02-28T15:16:21;18.90;47.40
41116;DHT22;26861;51.824;4.682;2023-02-28T15:21:23;18.90;47.40
41116;DHT22;26861;51.824;4.682;2023-02-28T15:26:33;18.90;47.70
41116;DHT22;26861;51.824;4.682;2023-02-28T15:29:14;18.90;47.70
41116;DHT22;26861;51.824;4.682;2023-02-28T15:31:48;18.80;48.70
41116;DHT22;26861;51.824;4.682;2023-02-28T15:34:20;18.90;47.70
41116;DHT22;26861;51.824;4.682;2023-02-28T15:36:46;18.80;47.90
41116;DHT22;26861;51.824;4.682;2023-02-28T15:39:21;18.80;48.20
41116;DHT22;26861;51.824;4.682;2023-02-28T15:41:47;18.70;48.00
41116;DHT22;26861;51.824;4.682;2023-02-28T15:44:34;18.70;48.30
41116;DHT22;26861;51.824;4.682;2023-02-28T15:47:14;18.70;48.70
41116;DHT22;26861;51.824;4.682;2023-02-28T15:49:49;18.60;48.70
41116;DHT22;26861;51.824;4.682;2023-02-28T15:52:39;18.60;48.70
41116;DHT22;26861;51.824;4.682;2023-02-28T15:57:44;18.50;49.00
41116;DHT22;26861;51.824;4.682;2023-02-28T16:00:14;18.50;48.90
41116;DHT22;26861;51.824;4.682;2023-02-28T16:02:40;18.40;48.70
41116;DHT22;26861;51.824;4.682;2023-02-28T16:07:33;18.40;49.10
41116;DHT22;26861;51.824;4.682;2023-02-28T16:09:59;18.30;49.20
41116;DHT22;26861;51.824;4.682;2023-02-28T16:12:30;18.20;49.60
41116;DHT22;26861;51.824;4.682;2023-02-28T16:14:59;18.20;49.50
41116;DHT22;26861;51.824;4.682;2023-02-28T16:17:29;18.10;49.40
41116;DHT22;26861;51.824;4.682;2023-02-28T16:19:56;18.10;49.30
41116;DHT22;26861;51.824;4.682;2023-02-28T16:22:22;18.00;49.60
41116;DHT22;26861;51.824;4.682;2023-02-28T16:24:48;17.90;49.90
41116;DHT22;26861;51.824;4.682;2023-02-28T16:27:35;17.80;50.80
41116;DHT22;26861;51.824;4.682;2023-02-28T16:30:01;17.80;50.50
41116;DHT22;26861;51.824;4.682;2023-02-28T16:32:34;17.70;50.20
41116;DHT22;26861;51.824;4.682;2023-02-28T16:35:00;17.60;50.30
41116;DHT22;26861;51.824;4.682;2023-02-28T16:37:27;17.60;50.40
41116;DHT22;26861;51.824;4.682;2023-02-28T16:39:53;17.50;50.60
41116;DHT22;26861;51.824;4.682;2023-02-28T16:42:23;17.40;50.60
41116;DHT22;26861;51.824;4.682;2023-02-28T16:44:50;17.40;50.90
41116;DHT22;26861;51.824;4.682;2023-02-28T16:47:17;17.30;50.40
41116;DHT22;26861;51.824;4.682;2023-02-28T16:49:43;17.30;50.70
41116;DHT22;26861;51.824;4.682;2023-02-28T16:52:10;17.30;50.50
41116;DHT22;26861;51.824;4.682;2023-02-28T16:54:37;17.20;50.60
41116;DHT22;26861;51.824;4.682;2023-02-28T16:57:04;17.20;50.60
41116;DHT22;26861;51.824;4.682;2023-02-28T16:59:31;17.20;51.20
41116;DHT22;26861;51.824;4.682;2023-02-28T17:01:57;17.20;50.60
41116;DHT22;26861;51.824;4.682;2023-02-28T17:04:24;17.10;50.70
41116;DHT22;26861;51.824;4.682;2023-02-28T17:06:50;17.10;50.80
41116;DHT22;26861;51.824;4.682;2023-02-28T17:09:18;17.10;50.70
41116;DHT22;26861;51.824;4.682;2023-02-28T17:11:45;17.10;50.60
41116;DHT22;26861;51.824;4.682;2023-02-28T17:14:11;17.00;50.60
41116;DHT22;26861;51.824;4.682;2023-02-28T17:16:38;17.00;50.70
41116;DHT22;26861;51.824;4.682;2023-02-28T17:19:10;17.00;50.60
41116;DHT22;26861;51.824;4.682;2023-02-28T17:21:36;17.00;50.60
41116;DHT22;26861;51.824;4.682;2023-02-28T17:24:02;17.00;50.70
41116;DHT22;26861;51.824;4.682;2023-02-28T17:26:28;16.90;50.50
41116;DHT22;26861;51.824;4.682;2023-02-28T17:28:57;16.90;50.50
41116;DHT22;26861;51.824;4.682;2023-02-28T17:31:24;16.90;50.50
41116;DHT22;26861;51.824;4.682;2023-02-28T17:33:51;16.80;50.50
41116;DHT22;26861;51.824;4.682;2023-02-28T17:36:23;16.80;50.40
41116;DHT22;26861;51.824;4.682;2023-02-28T17:38:52;16.80;50.50
41116;DHT22;26861;51.824;4.682;2023-02-28T17:41:18;16.80;50.50
41116;DHT22;26861;51.824;4.682;2023-02-28T17:43:44;16.80;50.40
41116;DHT22;26861;51.824;4.682;2023-02-28T17:46:21;16.80;51.10
41116;DHT22;26861;51.824;4.682;2023-02-28T17:48:47;16.80;50.40
41116;DHT22;26861;51.824;4.682;2023-02-28T17:51:14;16.70;50.40
41116;DHT22;26861;51.824;4.682;2023-02-28T17:53:40;16.70;50.30
41116;DHT22;26861;51.824;4.682;2023-02-28T17:56:26;16.70;51.00
41116;DHT22;26861;51.824;4.682;2023-02-28T17:58:55;16.70;50.40
41116;DHT22;26861;51.824;4.682;2023-02-28T18:01:22;16.60;58.00
41116;DHT22;26861;51.824;4.682;2023-02-28T18:03:51;16.60;50.20
41116;DHT22;26861;51.824;4.682;2023-02-28T18:06:24;16.60;50.10
41116;DHT22;26861;51.824;4.682;2023-02-28T18:08:51;16.60;50.20
41116;DHT22;26861;51.824;4.682;2023-02-28T18:11:18;16.60;50.20
41116;DHT22;26861;51.824;4.682;2023-02-28T18:13:52;16.50;50.00
41116;DHT22;26861;51.824;4.682;2023-02-28T18:16:19;16.50;50.20
41116;DHT22;26861;51.824;4.682;2023-02-28T18:18:45;16.50;50.20
41116;DHT22;26861;51.824;4.682;2023-02-28T18:21:13;16.40;50.10
41116;DHT22;26861;51.824;4.682;2023-02-28T18:23:39;16.40;50.20